Souleymane Diaby

Olheiro-Chefe - Stade Malien
17 Jul 2027
Sábado
Processo

Personalidade

Adaptabilidade (16) Ambição (2) Controvérsia (15) Lealdade (9) Pressão (7) Profissionalismo (4) Espírito Esportivo (19) Temperamento (11)

Perfil

Estilo de Treinamento Democrático
Licença Continental A
Determinação 3
Gestão de Pessoas 6
Motivação 4
Disciplina 5
Satisfação no Trabalho
85%
Fadiga
0%
Função Olheiro-Chefe
Salário 30.1K p/s
Contrato 14.03.2030

Desempenho

Comportamento Bom
Eficácia do Treinamento
25%
Desenvolvimento do Jogador
40%
Prevenção de Lesões
45%
Implementação Tática
35%

Eventos Recentes

Avaliou um jogador agora
Participou de uma reunião de recrutamento agora
Recomendou um alvo de transferência agora
Recomendou um alvo de transferência agora
Votou contra um alvo de transferência agora
Participou de uma reunião de recrutamento agora
Participou de uma reunião de recrutamento agora
Avaliou um jogador 7d atrás

Monitorando agora

135
Jogador Clube Status Habilidade Confiança Observado Última observação Último voto
Ahmed Khaled Al Gaish Ativo 91 / 104 40% 2 16.07.2027 -
Midana Cassamá Portimonense Ativo 115 / 109 40% 2 16.07.2027 -
Xiscu Martínez Cavese Ativo 96 / 93 40% 2 13.07.2027 -
Javi Zarzo Gubbio Ativo 105 / 107 40% 2 13.07.2027 -
Antonio Cioffi Latina Ativo 102 / 105 40% 1 12.07.2027 -
Aaron Drinan Swindon Town Ativo 100 / 96 40% 2 10.07.2027 -
Michele Emmausso Cosenza Ativo 89 / 91 40% 1 10.07.2027 -
Cheickna Samaké Djoliba Ativo 94 / 92 40% 5 09.07.2027 -
Rob Street Lincoln City Ativo 99 / 106 40% 1 09.07.2027 -
Borna Knezović Casarano Ativo 118 / 115 40% 2 08.07.2027 -
Mayron de Almeida Pontedera Ativo 82 / 92 40% 1 08.07.2027 -
Andile Manyama Ajax Cape Town Ativo 107 / 112 40% 6 06.07.2027 -
Andrea Mattioli Arzignano Ativo 92 / 103 40% 1 06.07.2027 -
Jacopo Manconi Casertana Ativo 102 / 126 40% 6 04.07.2027 -
Simone Verdi Benevento Ativo 99 / 116 40% 1 04.07.2027 -
Zakaria Ajoughlal Renaissance Ativo 106 / 107 40% 1 02.07.2027 -
Ettore Gliozzi Mantova Ativo 119 / 120 40% 1 02.07.2027 -
Conor McAleny Harrogate Town Ativo 73 / 84 40% 1 01.07.2027 -
Kamran Aliev SKA Khabarovsk Ativo 108 / 115 40% 1 30.06.2027 -
Davis Mensah Cittadella Ativo 113 / 102 40% 1 28.06.2027 -
Mamaye Coulibaly ES Setif Ativo 96 / 104 40% 2 27.06.2027 -
Malick Touré Onze Createurs Ativo 94 / 98 40% 1 27.06.2027 -
Bilal Bafdili KV Mechelen Ativo 105 / 105 40% 2 26.06.2027 -
Kane Drummond Oldham Athletic Ativo 94 / 106 40% 2 26.06.2027 -
German Onugkha Rodina Rejeitado 137 / 111 40% 6 24.06.2027 Rejeitar
Eric Lanini Novara Ativo 119 / 102 40% 1 24.06.2027 -
Moussa Diallo US Forces Armees Ativo 72 / 64 40% 3 23.06.2027 -
Malick Touré Onze Createurs Perdido 108 / 87 40% 5 19.06.2027 -
Alou Doumbia Djoliba Ativo 113 / 97 40% 2 19.06.2027 Mais informações
Simon Dia Casertana Perdido 88 / 98 40% 1 19.06.2027 -
Roberto Insigne Catania Ativo 112 / 118 40% 1 19.06.2027 -
Jacques Bayo Ospitaletto Ativo 108 / 90 40% 2 17.06.2027 -
Mohamed Mallahi Pro Vercelli Ativo 109 / 115 40% 2 17.06.2027 -
Mamadou Sidibé AS Police Ativo 102 / 89 40% 1 16.06.2027 -
Mahamat Harouna Elect Sport Ativo 84 / 63 40% 1 15.06.2027 -
Ilja Zhbanov Rostov Ativo 90 / 94 67% 1 01.06.2027 Aprovar
Saliou Guindo Real Bamako Ativo 95 / 95 68% 1 01.06.2027 Aprovar
Ekain Orobengoa Real Sociedad Ativo 120 / 113 40% 1 01.06.2027 -
Eugenio D'Ursi Salernitana Ativo 122 / 114 40% 1 01.06.2027 -
Corrado Riviera Renate Ativo 122 / 92 40% 1 31.05.2027 -
Federico Giraudo Casarano Ativo 91 / 90 40% 1 31.05.2027 -
Ítalo Ural Ativo 115 / 98 40% 1 29.05.2027 -
Alexandr Yushin Torpedo Moscow Ativo 89 / 111 40% 4 28.05.2027 -
Esaie Djikoloum CotonTchad Ativo 84 / 81 40% 3 28.05.2027 -
Jarleysom Portimonense Ativo 121 / 110 40% 2 28.05.2027 -
Mady Dembélé Djoliba Ativo 100 / 100 40% 1 28.05.2027 -
Salam Jiddou Onze Createurs Ativo 92 / 93 40% 1 27.05.2027 -
Raye Cissé Djoliba Ativo 96 / 99 40% 2 23.05.2027 -
Sam Gale Gillingham Ativo 111 / 100 40% 2 22.05.2027 -
Ilja Agapov Ufa Ativo 98 / 109 40% 1 22.05.2027 -
Bourama Fomba Djoliba Ativo 79 / 87 40% 1 19.05.2027 -
Ethan Bristow Tranmere Rovers Ativo 89 / 100 40% 1 19.05.2027 -
Michael Cheek Bromley Ativo 105 / 95 40% 4 18.05.2027 -
Gino Caoki Nimes Ativo 112 / 95 40% 1 18.05.2027 -
Conor McAleny Harrogate Town Perdido 101 / 89 40% 2 16.05.2027 -
Víctor Guzmán Sporting CP Ativo 92 / 106 40% 3 16.05.2027 -
Dilan Ortíz Ufa Ativo 95 / 99 40% 5 15.05.2027 -
Zakaria Ami US Bougouni Ativo 91 / 79 40% 2 13.05.2027 -
Oumar Maïga Real Bamako Ativo 91 / 94 40% 1 13.05.2027 -
Amine El Maswab Renaissance Ativo 100 / 83 40% 1 12.05.2027 -
Youssef Dalouzi Renaissance Ativo 91 / 83 40% 2 10.05.2027 -
Aboubacar Haïdara AS Bakaridjan Ativo 85 / 87 40% 2 10.05.2027 -
Anass Moulhami US Bougouni Ativo 87 / 93 40% 2 08.05.2027 -
Félix Djoubairou Renaissance Ativo 77 / 86 40% 1 07.05.2027 -
Malick Berthé AS Police Ativo 106 / 100 51% 5 06.05.2027 Rejeitar
Ousmane Ndong Akhmat Grozny Ativo 108 / 112 40% 1 06.05.2027 -
Gonçalo Costa Estoril Praia Ativo 129 / 117 40% 1 04.05.2027 Mais informações
Leandro Martins Benfica Ativo 105 / 90 40% 2 03.05.2027 Mais informações
Ahmed Diomandé Valenciennes Ativo 104 / 108 40% 2 02.05.2027 -
Kamil Conteh Bristol Rovers Ativo 107 / 119 40% 1 02.05.2027 -
Yanick Leuyo Stade Renard de Melong Ativo 74 / 82 40% 1 30.04.2027 -
Simone Potop AlbinoLeffe Ativo 89 / 99 40% 1 29.04.2027 -
Iker Pozo Rodina Ativo 109 / 132 40% 1 29.04.2027 -
Amur Kalmykov Spartak Kostroma Ativo 116 / 117 40% 5 25.04.2027 -
Yannick Masra Aiglons Ativo 78 / 90 40% 3 25.04.2027 -
Jonah James New Edubiase United Ativo 86 / 79 40% 3 24.04.2027 -
Lamine Diakité Djoliba Ativo 105 / 91 40% 2 24.04.2027 -
Jonathan Okoronkwo Torpedo Moscow Ativo 88 / 99 40% 10 23.04.2027 -
Terence Ngankam Unisport Bafang Ativo 83 / 69 40% 1 22.04.2027 -
Moussa Aoudou Dynamo Douala Ativo 87 / 89 40% 1 21.04.2027 -
Rio Adébísí Peterborough United Ativo 88 / 107 40% 1 20.04.2027 -
Andile Zwane SuperSport United Ativo 115 / 113 40% 3 18.04.2027 -
Moussa Sissoko Real Bamako Perdido 82 / 95 40% 2 17.04.2027 Mais informações
Will Hondermarck Binga Ativo 97 / 100 40% 1 17.04.2027 -
Diamanka Senghor Mosta Ativo 82 / 90 40% 1 16.04.2027 -
Yaya Karim Foullah Edifice Ativo 71 / 71 40% 1 16.04.2027 -
Jere Vrcić Birkirkara Ativo 101 / 111 40% 1 14.04.2027 -
Fanil Sungatulin Ural Ativo 99 / 104 40% 1 13.04.2027 -
Julian Demarteau Lokeren Ativo 105 / 107 40% 1 11.04.2027 -
Salah Tarek Masr El Makasa Ativo 86 / 109 40% 1 10.04.2027 -
Amos Atiemo WAFA Ativo 74 / 90 40% 1 09.04.2027 -
Sandro Trémoulet Radnik Surdulica Ativo 87 / 92 40% 1 08.04.2027 -
Jannes Wieckhoff De Graafschap Ativo 98 / 103 40% 1 08.04.2027 -
Matties Volckaert KAA Gent Ativo 116 / 110 40% 1 06.04.2027 -
Zoumana Coulibaly Afrique Foot Elite Ativo 82 / 83 40% 1 06.04.2027 -
David Nieland Chernomorets Ativo 89 / 81 40% 1 05.04.2027 -
Gouné Niangadou Onze Createurs Ativo 81 / 97 40% 2 04.04.2027 -
Emile Samyn Chernomorets Ativo 87 / 89 40% 3 04.04.2027 -
Ibrahima Dembélé US Bougouba Ativo 108 / 90 40% 3 03.04.2027 -
Lassana Samaké Onze Createurs Ativo 111 / 112 40% 2 03.04.2027 -
Patrick Schmidt Tarxien Rainbows Ativo 95 / 109 40% 2 01.04.2027 -
David Karaev KAMAZ Ativo 96 / 97 40% 3 29.03.2027 -
Souleymane Dramé AS Police Ativo 95 / 80 40% 1 29.03.2027 -
Aliou Diakité Real Bamako Ativo 92 / 97 40% 1 28.03.2027 -
Soltmurad Bakaev Rodina Ativo 107 / 97 40% 1 28.03.2027 Mais informações
Abdou Kanouté Onze Createurs Ativo 96 / 106 40% 1 25.03.2027 -
Lucas Mbamba Westerlo Ativo 69 / 108 40% 1 24.03.2027 -
Thomas Ince Watford Ativo 102 / 120 40% 2 23.03.2027 -
Belal Ateya Al Ahly Ativo 102 / 110 40% 1 23.03.2027 -
Yaya Kerim Renaissance Ativo 83 / 70 40% 1 21.03.2027 -
Moussa Mariko Onze Createurs Ativo 112 / 96 40% 2 19.03.2027 -
Brian Babit AC Ajaccio Ativo 103 / 98 40% 2 16.03.2027 -
Klaus Camara AC Ajaccio Ativo 72 / 109 40% 1 13.03.2027 -
Bruno Gomes Valletta Ativo 108 / 85 40% 2 12.03.2027 -
Gevork Sarkisyan Saturn Ativo 82 / 64 40% 1 07.03.2027 -
Uroš Đuranović Sliema Wanderers Ativo 112 / 100 40% 1 06.03.2027 -
Ilja Safronov Rotor Ativo 107 / 105 40% 3 27.02.2027 -
Edarlyn Reyes Arsenal Tula Ativo 105 / 93 40% 2 23.02.2027 -
Jah-Mason Telusson Olympique de Marseille Ativo 102 / 106 40% 1 22.02.2027 -
Samba Diallo Djoliba Ativo 92 / 96 40% 1 13.02.2027 -
Teddy Teuma Sliema Wanderers Ativo 109 / 142 40% 1 13.02.2027 -
Kenan Dervišagić Floriana Ativo 93 / 87 40% 1 13.02.2027 -
Naoufal Bannis Vitesse Ativo 120 / 105 40% 1 08.02.2027 -
Moussa Doumbia Anderlecht Ativo 100 / 100 40% 1 08.02.2027 -
Franklin Sasere Birkirkara Ativo 105 / 95 40% 1 06.02.2027 -
Daniil Agureev Amkar Ativo 97 / 88 40% 1 05.02.2027 -
Nikos Karelis Sliema Wanderers Ativo 89 / 94 40% 1 04.02.2027 -
Mailson Lima Hibernians Ativo 110 / 87 40% 1 03.02.2027 -
Jules Kalczynski Nimes Ativo 72 / 84 40% 2 31.01.2027 -
Alexey Skvortsov Metallurg Ativo 73 / 93 40% 1 23.01.2027 -
Andrey Mazurin Yenisey Ativo 106 / 110 40% 1 23.01.2027 -
Émile Lambert Sochaux Ativo 103 / 106 40% 1 27.08.2026 -
Amine Saïd Clermont Foot Ativo 97 / 100 40% 1 27.08.2026 -
Bojan Radulović Huddersfield Town Ativo 132 / 125 40% 1 25.08.2026 -
Orlando Gill LOSC Lille Ativo 120 / 128 40% 1 01.08.2026 -